sensor_id;sensor_type;location;lat;lon;timestamp;temperature;humidity
43414;DHT22;29013;49.676;8.606;2022-10-16T00:03:20;16.7;99.9
43414;DHT22;29013;49.676;8.606;2022-10-16T00:08:46;16.7;99.9
43414;DHT22;29013;49.676;8.606;2022-10-16T00:14:08;16.6;99.9
43414;DHT22;29013;49.676;8.606;2022-10-16T00:19:32;16.6;99.9
43414;DHT22;29013;49.676;8.606;2022-10-16T00:24:59;16.6;99.9
43414;DHT22;29013;49.676;8.606;2022-10-16T00:30:26;16.6;99.9
43414;DHT22;29013;49.676;8.606;2022-10-16T00:35:48;16.7;99.9
43414;DHT22;29013;49.676;8.606;2022-10-16T00:41:15;16.6;99.9
43414;DHT22;29013;49.676;8.606;2022-10-16T00:46:38;16.6;99.9
43414;DHT22;29013;49.676;8.606;2022-10-16T00:51:59;16.7;99.9
43414;DHT22;29013;49.676;8.606;2022-10-16T00:57:23;16.7;99.9
43414;DHT22;29013;49.676;8.606;2022-10-16T01:02:56;16.7;99.9
43414;DHT22;29013;49.676;8.606;2022-10-16T01:08:18;16.7;99.9
43414;DHT22;29013;49.676;8.606;2022-10-16T01:13:48;16.7;99.9
43414;DHT22;29013;49.676;8.606;2022-10-16T01:19:14;16.6;99.9
43414;DHT22;29013;49.676;8.606;2022-10-16T01:24:43;16.7;99.9
43414;DHT22;29013;49.676;8.606;2022-10-16T01:30:12;16.7;99.9
43414;DHT22;29013;49.676;8.606;2022-10-16T01:35:37;16.7;99.9
43414;DHT22;29013;49.676;8.606;2022-10-16T01:41:06;16.7;99.9
43414;DHT22;29013;49.676;8.606;2022-10-16T01:46:33;16.7;99.9
43414;DHT22;29013;49.676;8.606;2022-10-16T01:51:56;16.8;99.9
43414;DHT22;29013;49.676;8.606;2022-10-16T01:57:22;16.8;99.9
43414;DHT22;29013;49.676;8.606;2022-10-16T02:02:49;16.7;99.9
43414;DHT22;29013;49.676;8.606;2022-10-16T02:08:14;16.7;99.9
43414;DHT22;29013;49.676;8.606;2022-10-16T02:13:43;16.7;99.9
43414;DHT22;29013;49.676;8.606;2022-10-16T02:19:08;16.7;99.9
43414;DHT22;29013;49.676;8.606;2022-10-16T02:24:32;16.7;99.9
43414;DHT22;29013;49.676;8.606;2022-10-16T02:29:59;16.7;99.9
43414;DHT22;29013;49.676;8.606;2022-10-16T02:35:21;16.8;99.9
43414;DHT22;29013;49.676;8.606;2022-10-16T02:40:42;16.8;99.9
43414;DHT22;29013;49.676;8.606;2022-10-16T02:46:07;16.7;99.9
43414;DHT22;29013;49.676;8.606;2022-10-16T02:51:35;16.7;99.9
43414;DHT22;29013;49.676;8.606;2022-10-16T02:57:00;16.8;99.9
43414;DHT22;29013;49.676;8.606;2022-10-16T03:02:28;16.8;99.9
43414;DHT22;29013;49.676;8.606;2022-10-16T03:07:53;16.8;99.9
43414;DHT22;29013;49.676;8.606;2022-10-16T03:13:21;16.8;99.9
43414;DHT22;29013;49.676;8.606;2022-10-16T03:18:49;16.7;99.9
43414;DHT22;29013;49.676;8.606;2022-10-16T03:24:14;16.8;99.9
43414;DHT22;29013;49.676;8.606;2022-10-16T03:29:42;16.8;99.9
43414;DHT22;29013;49.676;8.606;2022-10-16T03:35:10;16.7;99.9
43414;DHT22;29013;49.676;8.606;2022-10-16T03:40:33;16.8;99.9
43414;DHT22;29013;49.676;8.606;2022-10-16T03:46:00;16.8;99.9
43414;DHT22;29013;49.676;8.606;2022-10-16T03:51:22;16.8;99.9
43414;DHT22;29013;49.676;8.606;2022-10-16T03:56:50;16.8;99.9
43414;DHT22;29013;49.676;8.606;2022-10-16T04:02:15;16.8;99.9
43414;DHT22;29013;49.676;8.606;2022-10-16T04:07:43;16.8;99.9
43414;DHT22;29013;49.676;8.606;2022-10-16T04:13:10;16.8;99.9
43414;DHT22;29013;49.676;8.606;2022-10-16T04:18:37;16.8;99.9
43414;DHT22;29013;49.676;8.606;2022-10-16T04:24:03;16.8;99.9
43414;DHT22;29013;49.676;8.606;2022-10-16T04:29:30;16.8;99.9
43414;DHT22;29013;49.676;8.606;2022-10-16T04:34:58;16.7;99.9
43414;DHT22;29013;49.676;8.606;2022-10-16T04:40:23;16.7;99.9
43414;DHT22;29013;49.676;8.606;2022-10-16T04:45:45;16.7;99.9
43414;DHT22;29013;49.676;8.606;2022-10-16T04:51:13;16.7;99.9
43414;DHT22;29013;49.676;8.606;2022-10-16T04:56:37;16.8;99.9
43414;DHT22;29013;49.676;8.606;2022-10-16T05:02:03;16.7;99.9
43414;DHT22;29013;49.676;8.606;2022-10-16T05:07:25;16.7;99.9
43414;DHT22;29013;49.676;8.606;2022-10-16T05:12:52;16.7;99.9
43414;DHT22;29013;49.676;8.606;2022-10-16T05:18:19;16.7;99.9
43414;DHT22;29013;49.676;8.606;2022-10-16T05:23:45;16.6;99.9
43414;DHT22;29013;49.676;8.606;2022-10-16T05:29:07;16.6;99.9
43414;DHT22;29013;49.676;8.606;2022-10-16T05:34:34;16.6;99.9
43414;DHT22;29013;49.676;8.606;2022-10-16T05:39:58;16.6;99.9
43414;DHT22;29013;49.676;8.606;2022-10-16T05:45:25;16.5;99.9
43414;DHT22;29013;49.676;8.606;2022-10-16T05:50:50;16.5;99.9
43414;DHT22;29013;49.676;8.606;2022-10-16T05:56:16;16.5;99.9
43414;DHT22;29013;49.676;8.606;2022-10-16T06:01:44;16.5;99.9
43414;DHT22;29013;49.676;8.606;2022-10-16T06:07:11;16.5;99.9
43414;DHT22;29013;49.676;8.606;2022-10-16T06:12:34;16.5;99.9
43414;DHT22;29013;49.676;8.606;2022-10-16T06:18:02;16.5;99.9
43414;DHT22;29013;49.676;8.606;2022-10-16T06:23:27;16.5;99.9
43414;DHT22;29013;49.676;8.606;2022-10-16T06:28:48;16.5;99.9
43414;DHT22;29013;49.676;8.606;2022-10-16T06:34:10;16.5;99.9
43414;DHT22;29013;49.676;8.606;2022-10-16T06:39:33;16.5;99.9
43414;DHT22;29013;49.676;8.606;2022-10-16T06:44:58;16.6;99.9
43414;DHT22;29013;49.676;8.606;2022-10-16T06:50:25;16.6;99.9
43414;DHT22;29013;49.676;8.606;2022-10-16T06:55:52;16.6;99.9
43414;DHT22;29013;49.676;8.606;2022-10-16T07:01:20;16.7;99.9
43414;DHT22;29013;49.676;8.606;2022-10-16T07:06:48;16.8;99.9
43414;DHT22;29013;49.676;8.606;2022-10-16T07:12:18;16.8;99.9
43414;DHT22;29013;49.676;8.606;2022-10-16T07:17:45;16.8;99.9
43414;DHT22;29013;49.676;8.606;2022-10-16T07:23:09;16.8;99.9
43414;DHT22;29013;49.676;8.606;2022-10-16T07:28:34;16.9;99.9
43414;DHT22;29013;49.676;8.606;2022-10-16T07:33:57;16.9;99.9
43414;DHT22;29013;49.676;8.606;2022-10-16T07:39:23;17.0;99.9
43414;DHT22;29013;49.676;8.606;2022-10-16T07:44:50;17.0;99.9
43414;DHT22;29013;49.676;8.606;2022-10-16T07:50:18;17.0;99.9
43414;DHT22;29013;49.676;8.606;2022-10-16T07:55:40;17.0;99.9
43414;DHT22;29013;49.676;8.606;2022-10-16T08:01:04;17.1;99.9
43414;DHT22;29013;49.676;8.606;2022-10-16T08:06:30;17.1;99.9
43414;DHT22;29013;49.676;8.606;2022-10-16T08:11:56;17.1;99.9
43414;DHT22;29013;49.676;8.606;2022-10-16T08:17:24;17.1;99.9
43414;DHT22;29013;49.676;8.606;2022-10-16T08:22:51;17.2;99.9
43414;DHT22;29013;49.676;8.606;2022-10-16T08:28:18;17.2;99.9
43414;DHT22;29013;49.676;8.606;2022-10-16T08:33:41;17.2;99.9
43414;DHT22;29013;49.676;8.606;2022-10-16T08:39:05;17.2;99.9
43414;DHT22;29013;49.676;8.606;2022-10-16T08:50:27;17.3;99.9
43414;DHT22;29013;49.676;8.606;2022-10-16T08:55:55;17.1;99.9
43414;DHT22;29013;49.676;8.606;2022-10-16T09:01:19;17.1;99.9
43414;DHT22;29013;49.676;8.606;2022-10-16T09:06:46;17.0;99.9
43414;DHT22;29013;49.676;8.606;2022-10-16T09:12:14;17.1;99.9
43414;DHT22;29013;49.676;8.606;2022-10-16T09:17:41;17.1;99.9
43414;DHT22;29013;49.676;8.606;2022-10-16T09:23:17;17.2;99.9
43414;DHT22;29013;49.676;8.606;2022-10-16T09:28:39;17.2;99.9
43414;DHT22;29013;49.676;8.606;2022-10-16T09:34:04;17.2;99.9
43414;DHT22;29013;49.676;8.606;2022-10-16T09:39:28;17.3;99.9
43414;DHT22;29013;49.676;8.606;2022-10-16T09:44:53;17.4;99.9
43414;DHT22;29013;49.676;8.606;2022-10-16T09:50:24;17.6;99.9
43414;DHT22;29013;49.676;8.606;2022-10-16T09:55:53;17.9;99.9
43414;DHT22;29013;49.676;8.606;2022-10-16T10:01:18;18.5;99.9
43414;DHT22;29013;49.676;8.606;2022-10-16T10:06:45;19.0;99.9
43414;DHT22;29013;49.676;8.606;2022-10-16T10:12:19;19.3;99.9
43414;DHT22;29013;49.676;8.606;2022-10-16T10:17:49;19.8;99.9
43414;DHT22;29013;49.676;8.606;2022-10-16T10:23:22;20.1;99.9
43414;DHT22;29013;49.676;8.606;2022-10-16T10:28:49;20.4;99.9
43414;DHT22;29013;49.676;8.606;2022-10-16T10:34:24;20.6;99.9
43414;DHT22;29013;49.676;8.606;2022-10-16T10:39:46;20.9;99.9
43414;DHT22;29013;49.676;8.606;2022-10-16T10:45:24;21.0;99.9
43414;DHT22;29013;49.676;8.606;2022-10-16T10:50:48;21.2;99.9
43414;DHT22;29013;49.676;8.606;2022-10-16T10:56:22;21.6;99.9
43414;DHT22;29013;49.676;8.606;2022-10-16T11:01:47;22.0;99.9
43414;DHT22;29013;49.676;8.606;2022-10-16T11:07:13;22.3;99.9
43414;DHT22;29013;49.676;8.606;2022-10-16T11:12:38;22.7;99.9
43414;DHT22;29013;49.676;8.606;2022-10-16T11:18:05;23.0;99.9
43414;DHT22;29013;49.676;8.606;2022-10-16T11:23:30;23.0;99.9
43414;DHT22;29013;49.676;8.606;2022-10-16T11:28:56;23.1;99.9
43414;DHT22;29013;49.676;8.606;2022-10-16T11:34:21;23.4;99.9
43414;DHT22;29013;49.676;8.606;2022-10-16T11:39:45;23.7;99.9
43414;DHT22;29013;49.676;8.606;2022-10-16T11:45:15;23.8;99.9
43414;DHT22;29013;49.676;8.606;2022-10-16T11:50:40;23.7;99.9
43414;DHT22;29013;49.676;8.606;2022-10-16T11:56:08;23.9;99.9
43414;DHT22;29013;49.676;8.606;2022-10-16T12:01:37;23.8;99.9
43414;DHT22;29013;49.676;8.606;2022-10-16T12:07:04;23.6;99.9
43414;DHT22;29013;49.676;8.606;2022-10-16T12:12:37;23.2;99.9
43414;DHT22;29013;49.676;8.606;2022-10-16T12:17:56;22.9;99.9
43414;DHT22;29013;49.676;8.606;2022-10-16T12:23:21;23.2;99.9
43414;DHT22;29013;49.676;8.606;2022-10-16T12:28:49;23.2;99.9
43414;DHT22;29013;49.676;8.606;2022-10-16T12:34:21;23.0;99.9
43414;DHT22;29013;49.676;8.606;2022-10-16T12:39:48;23.0;99.9
43414;DHT22;29013;49.676;8.606;2022-10-16T12:45:27;22.9;99.9
43414;DHT22;29013;49.676;8.606;2022-10-16T12:50:50;22.9;99.9
43414;DHT22;29013;49.676;8.606;2022-10-16T12:56:16;22.6;99.9
43414;DHT22;29013;49.676;8.606;2022-10-16T13:01:53;22.5;99.9
43414;DHT22;29013;49.676;8.606;2022-10-16T13:07:17;22.6;99.9
43414;DHT22;29013;49.676;8.606;2022-10-16T13:18:26;22.5;99.9
43414;DHT22;29013;49.676;8.606;2022-10-16T13:23:50;22.2;99.9
43414;DHT22;29013;49.676;8.606;2022-10-16T13:29:14;22.1;99.9
43414;DHT22;29013;49.676;8.606;2022-10-16T13:34:47;22.0;99.9
43414;DHT22;29013;49.676;8.606;2022-10-16T13:40:20;21.9;99.9
43414;DHT22;29013;49.676;8.606;2022-10-16T13:45:51;21.8;99.9
43414;DHT22;29013;49.676;8.606;2022-10-16T13:51:14;21.6;99.9
43414;DHT22;29013;49.676;8.606;2022-10-16T13:56:38;21.4;99.9
43414;DHT22;29013;49.676;8.606;2022-10-16T14:02:08;21.4;99.9
43414;DHT22;29013;49.676;8.606;2022-10-16T14:07:34;21.4;99.9
43414;DHT22;29013;49.676;8.606;2022-10-16T14:13:02;21.3;99.9
43414;DHT22;29013;49.676;8.606;2022-10-16T14:18:24;21.4;99.9
43414;DHT22;29013;49.676;8.606;2022-10-16T14:23:46;21.4;99.9
43414;DHT22;29013;49.676;8.606;2022-10-16T14:29:15;21.3;99.9
43414;DHT22;29013;49.676;8.606;2022-10-16T14:34:42;21.3;99.9
43414;DHT22;29013;49.676;8.606;2022-10-16T14:40:15;21.2;99.9
43414;DHT22;29013;49.676;8.606;2022-10-16T14:45:37;21.2;99.9
43414;DHT22;29013;49.676;8.606;2022-10-16T14:51:04;21.2;99.9
43414;DHT22;29013;49.676;8.606;2022-10-16T14:56:29;21.2;99.9
43414;DHT22;29013;49.676;8.606;2022-10-16T15:01:53;21.2;99.9
43414;DHT22;29013;49.676;8.606;2022-10-16T15:07:20;21.1;99.9
43414;DHT22;29013;49.676;8.606;2022-10-16T15:12:48;21.1;99.9
43414;DHT22;29013;49.676;8.606;2022-10-16T15:18:10;21.1;99.9
43414;DHT22;29013;49.676;8.606;2022-10-16T15:23:35;21.1;99.9
43414;DHT22;29013;49.676;8.606;2022-10-16T15:29:02;21.0;99.9
43414;DHT22;29013;49.676;8.606;2022-10-16T15:34:29;21.0;99.9
43414;DHT22;29013;49.676;8.606;2022-10-16T15:39:58;20.9;99.9
43414;DHT22;29013;49.676;8.606;2022-10-16T15:45:28;20.9;99.9
43414;DHT22;29013;49.676;8.606;2022-10-16T15:50:57;20.9;99.9
43414;DHT22;29013;49.676;8.606;2022-10-16T15:56:27;20.8;99.9
43414;DHT22;29013;49.676;8.606;2022-10-16T16:01:53;20.8;99.9
43414;DHT22;29013;49.676;8.606;2022-10-16T16:07:21;20.7;99.9
43414;DHT22;29013;49.676;8.606;2022-10-16T16:12:46;20.5;99.9
43414;DHT22;29013;49.676;8.606;2022-10-16T16:18:10;20.4;99.9
43414;DHT22;29013;49.676;8.606;2022-10-16T16:23:31;20.2;99.9
43414;DHT22;29013;49.676;8.606;2022-10-16T16:28:56;20.2;99.9
43414;DHT22;29013;49.676;8.606;2022-10-16T16:34:23;20.0;99.9
43414;DHT22;29013;49.676;8.606;2022-10-16T16:39:48;19.9;99.9
43414;DHT22;29013;49.676;8.606;2022-10-16T16:45:11;19.7;99.9
43414;DHT22;29013;49.676;8.606;2022-10-16T16:50:36;19.6;99.9
43414;DHT22;29013;49.676;8.606;2022-10-16T16:56:05;19.5;99.9
43414;DHT22;29013;49.676;8.606;2022-10-16T17:01:30;19.4;99.9
43414;DHT22;29013;49.676;8.606;2022-10-16T17:06:55;19.3;99.9
43414;DHT22;29013;49.676;8.606;2022-10-16T17:12:23;19.3;99.9
43414;DHT22;29013;49.676;8.606;2022-10-16T17:17:50;19.1;99.9
43414;DHT22;29013;49.676;8.606;2022-10-16T17:23:14;18.9;99.9
43414;DHT22;29013;49.676;8.606;2022-10-16T17:28:38;18.8;99.9
43414;DHT22;29013;49.676;8.606;2022-10-16T17:34:08;18.6;99.9
43414;DHT22;29013;49.676;8.606;2022-10-16T17:39:30;18.4;99.9
43414;DHT22;29013;49.676;8.606;2022-10-16T17:44:58;18.3;99.9
43414;DHT22;29013;49.676;8.606;2022-10-16T17:50:23;18.1;99.9
43414;DHT22;29013;49.676;8.606;2022-10-16T17:55:49;18.0;99.9
43414;DHT22;29013;49.676;8.606;2022-10-16T18:01:16;17.9;99.9
43414;DHT22;29013;49.676;8.606;2022-10-16T18:06:41;17.9;99.9
43414;DHT22;29013;49.676;8.606;2022-10-16T18:12:06;17.8;99.9
43414;DHT22;29013;49.676;8.606;2022-10-16T18:17:27;17.7;99.9
43414;DHT22;29013;49.676;8.606;2022-10-16T18:22:55;17.7;99.9
43414;DHT22;29013;49.676;8.606;2022-10-16T18:28:44;17.6;99.9
43414;DHT22;29013;49.676;8.606;2022-10-16T18:34:08;17.6;99.9
43414;DHT22;29013;49.676;8.606;2022-10-16T18:39:30;17.5;99.9
43414;DHT22;29013;49.676;8.606;2022-10-16T18:44:57;17.3;99.9
43414;DHT22;29013;49.676;8.606;2022-10-16T18:50:19;17.3;99.9
43414;DHT22;29013;49.676;8.606;2022-10-16T18:55:41;17.3;99.9
43414;DHT22;29013;49.676;8.606;2022-10-16T19:01:07;17.3;99.9
43414;DHT22;29013;49.676;8.606;2022-10-16T19:06:34;17.1;99.9
43414;DHT22;29013;49.676;8.606;2022-10-16T19:12:03;17.0;99.9
43414;DHT22;29013;49.676;8.606;2022-10-16T19:17:30;17.0;99.9
43414;DHT22;29013;49.676;8.606;2022-10-16T19:22:58;16.9;99.9
43414;DHT22;29013;49.676;8.606;2022-10-16T19:28:19;16.8;99.9
43414;DHT22;29013;49.676;8.606;2022-10-16T19:33:49;16.8;99.9
43414;DHT22;29013;49.676;8.606;2022-10-16T19:39:15;16.7;99.9
43414;DHT22;29013;49.676;8.606;2022-10-16T19:44:41;16.7;99.9
43414;DHT22;29013;49.676;8.606;2022-10-16T19:50:04;16.6;99.9
43414;DHT22;29013;49.676;8.606;2022-10-16T19:55:28;16.6;99.9
43414;DHT22;29013;49.676;8.606;2022-10-16T20:00:49;16.4;99.9
43414;DHT22;29013;49.676;8.606;2022-10-16T20:06:15;16.4;99.9
43414;DHT22;29013;49.676;8.606;2022-10-16T20:11:39;16.3;99.9
43414;DHT22;29013;49.676;8.606;2022-10-16T20:17:06;16.3;99.9
43414;DHT22;29013;49.676;8.606;2022-10-16T20:22:34;16.3;99.9
43414;DHT22;29013;49.676;8.606;2022-10-16T20:27:59;16.2;99.9
43414;DHT22;29013;49.676;8.606;2022-10-16T20:33:30;16.2;99.9
43414;DHT22;29013;49.676;8.606;2022-10-16T20:38:58;16.3;99.9
43414;DHT22;29013;49.676;8.606;2022-10-16T20:44:25;16.2;99.9
43414;DHT22;29013;49.676;8.606;2022-10-16T20:49:50;16.2;99.9
43414;DHT22;29013;49.676;8.606;2022-10-16T20:55:16;16.1;99.9
43414;DHT22;29013;49.676;8.606;2022-10-16T21:00:38;16.1;99.9
43414;DHT22;29013;49.676;8.606;2022-10-16T21:06:05;16.0;99.9
43414;DHT22;29013;49.676;8.606;2022-10-16T21:11:31;15.9;99.9
43414;DHT22;29013;49.676;8.606;2022-10-16T21:16:57;15.8;99.9
43414;DHT22;29013;49.676;8.606;2022-10-16T21:22:27;15.8;99.9
43414;DHT22;29013;49.676;8.606;2022-10-16T21:27:48;15.8;99.9
43414;DHT22;29013;49.676;8.606;2022-10-16T21:33:14;15.7;99.9
43414;DHT22;29013;49.676;8.606;2022-10-16T21:38:39;15.7;99.9
43414;DHT22;29013;49.676;8.606;2022-10-16T21:44:07;15.7;99.9
43414;DHT22;29013;49.676;8.606;2022-10-16T21:49:35;15.7;99.9
43414;DHT22;29013;49.676;8.606;2022-10-16T21:55:00;15.7;99.9
43414;DHT22;29013;49.676;8.606;2022-10-16T22:00:26;15.6;99.9
43414;DHT22;29013;49.676;8.606;2022-10-16T22:05:54;15.6;99.9
43414;DHT22;29013;49.676;8.606;2022-10-16T22:11:20;15.6;99.9
43414;DHT22;29013;49.676;8.606;2022-10-16T22:16:41;15.6;99.9
43414;DHT22;29013;49.676;8.606;2022-10-16T22:22:08;15.6;99.9
43414;DHT22;29013;49.676;8.606;2022-10-16T22:27:36;15.6;99.9
43414;DHT22;29013;49.676;8.606;2022-10-16T22:33:02;15.6;99.9
43414;DHT22;29013;49.676;8.606;2022-10-16T22:38:29;15.6;99.9
43414;DHT22;29013;49.676;8.606;2022-10-16T22:43:54;15.6;99.9
43414;DHT22;29013;49.676;8.606;2022-10-16T22:49:19;15.6;99.9
43414;DHT22;29013;49.676;8.606;2022-10-16T22:54:46;15.7;99.9
43414;DHT22;29013;49.676;8.606;2022-10-16T23:00:14;15.8;99.9
43414;DHT22;29013;49.676;8.606;2022-10-16T23:05:38;15.9;99.9
43414;DHT22;29013;49.676;8.606;2022-10-16T23:11:08;16.0;99.9
43414;DHT22;29013;49.676;8.606;2022-10-16T23:16:29;16.0;99.9
43414;DHT22;29013;49.676;8.606;2022-10-16T23:21:58;16.1;99.9
43414;DHT22;29013;49.676;8.606;2022-10-16T23:27:26;16.1;99.9
43414;DHT22;29013;49.676;8.606;2022-10-16T23:32:56;16.1;99.9
43414;DHT22;29013;49.676;8.606;2022-10-16T23:38:19;16.1;99.9
43414;DHT22;29013;49.676;8.606;2022-10-16T23:43:44;16.1;99.9
43414;DHT22;29013;49.676;8.606;2022-10-16T23:49:07;16.0;99.9
43414;DHT22;29013;49.676;8.606;2022-10-16T23:54:34;16.0;99.9
43414;DHT22;29013;49.676;8.606;2022-10-16T23:59:59;15.9;99.9
